Time;durP1;ratioP1;P1;durP2;ratioP2;P2;SDS_P1;SDS_P2;PMS_P1;PMS_P2;Temp;Humidity;BMP_temperature;BMP_pressure;BME280_temperature;BME280_humidity;BME280_pressure;Samples;Min_cycle;Max_cycle;Signal;HPM_P1;HPM_P2
2024/03/12 06:26:21;;;;;;;12.63;7.57;;;;;;;0.92;100.00;100487.16;4720906;30;20059;-89
2024/03/12 06:30:43;;;;;;;10.97;7.23;;;;;;;1.02;100.00;100484.75;4695323;30;20057;-91
2024/03/12 06:43:40;;;;;;;11.87;7.50;;;;;;;1.20;100.00;100501.47;4650241;30;20057;-91
2024/03/12 06:46:09;;;;;;;11.10;7.30;;;;;;;1.27;100.00;100501.59;4695190;30;20046;-89
2024/03/12 06:48:36;;;;;;;11.20;7.57;;;;;;;1.33;100.00;100495.56;4723113;30;20067;-90
2024/03/12 06:51:06;;;;;;;11.47;7.33;;;;;;;1.45;100.00;100508.78;4745042;30;20425;-90
2024/03/12 06:53:36;;;;;;;11.10;7.67;;;;;;;1.61;100.00;100497.72;4758632;30;20542;-90
2024/03/12 06:56:05;;;;;;;11.03;7.80;;;;;;;1.64;100.00;100497.75;4755260;30;20113;-90
2024/03/12 06:58:32;;;;;;;10.70;7.30;;;;;;;1.71;100.00;100505.66;4755146;30;20052;-87
2024/03/12 07:01:00;;;;;;;11.30;8.00;;;;;;;1.70;100.00;100507.38;4769241;30;20067;-91
2024/03/12 07:03:29;;;;;;;10.63;7.33;;;;;;;1.71;100.00;100511.72;4754397;30;20288;-89
2024/03/12 07:05:56;;;;;;;10.00;6.93;;;;;;;1.73;100.00;100509.13;4784733;29;20124;-89
2024/03/12 07:08:25;;;;;;;10.40;7.30;;;;;;;1.79;100.00;100514.44;4772746;30;20517;-90
2024/03/12 07:10:53;;;;;;;11.67;7.07;;;;;;;1.87;100.00;100518.88;4773447;29;20059;-89
2024/03/12 07:13:22;;;;;;;8.93;6.60;;;;;;;1.95;100.00;100514.63;4773299;30;20421;-89
2024/03/12 07:15:49;;;;;;;9.43;6.83;;;;;;;2.05;100.00;100514.75;4758567;30;20065;-89
2024/03/12 07:18:18;;;;;;;11.43;7.10;;;;;;;2.17;100.00;100522.69;4775156;30;20462;-90
2024/03/12 07:20:45;;;;;;;9.80;6.73;;;;;;;2.32;100.00;100520.25;4767938;30;20500;-91
2024/03/12 07:23:13;;;;;;;10.70;6.80;;;;;;;2.40;100.00;100526.44;4773479;29;20195;-91
2024/03/12 07:25:43;;;;;;;9.77;7.10;;;;;;;2.65;100.00;100537.09;4802224;29;20074;-90
2024/03/12 07:28:12;;;;;;;11.60;7.07;;;;;;;2.82;100.00;100525.97;4773731;30;20134;-89
2024/03/12 07:30:40;;;;;;;11.23;7.57;;;;;;;3.03;100.00;100532.25;4774048;30;20051;-92
2024/03/12 07:33:07;;;;;;;10.33;6.97;;;;;;;3.18;100.00;100527.13;4788547;30;20055;-90
2024/03/12 07:35:34;;;;;;;10.10;6.43;;;;;;;3.52;100.00;100527.34;4803027;29;20505;-91
2024/03/12 07:38:02;;;;;;;9.50;6.07;;;;;;;3.84;100.00;100524.91;4787961;29;20100;-92
2024/03/12 07:40:31;;;;;;;9.33;6.77;;;;;;;4.10;100.00;100523.25;4788700;29;20147;-91
2024/03/12 07:42:58;;;;;;;9.23;6.50;;;;;;;4.44;100.00;100528.59;4788156;29;20078;-91
2024/03/12 07:45:26;;;;;;;9.77;6.80;;;;;;;4.77;100.00;100526.03;4773798;29;20051;-91
2024/03/12 07:47:55;;;;;;;10.87;7.40;;;;;;;5.13;100.00;100523.41;4773568;29;20047;-92
2024/03/12 07:50:28;;;;;;;8.83;6.80;;;;;;;5.35;100.00;100523.41;4773246;30;20135;-92
2024/03/12 07:52:55;;;;;;;11.37;6.60;;;;;;;5.35;100.00;100528.66;4770269;30;20483;-92
2024/03/12 07:55:24;;;;;;;9.17;6.27;;;;;;;5.35;100.00;100530.41;4790203;29;20054;-92
2024/03/12 07:57:51;;;;;;;8.47;6.10;;;;;;;5.41;100.00;100530.41;4820280;29;20054;-92
2024/03/12 08:00:19;;;;;;;9.90;6.90;;;;;;;5.59;100.00;100543.47;4805755;29;20061;-91
2024/03/12 08:02:46;;;;;;;6.67;5.80;;;;;;;5.73;100.00;100542.56;4804962;29;20050;-92
2024/03/12 08:05:13;;;;;;;9.90;6.70;;;;;;;5.89;100.00;100539.03;4819683;29;20142;-88
2024/03/12 08:07:44;;;;;;;9.73;6.80;;;;;;;6.00;100.00;100539.88;4820082;29;20046;-92
2024/03/12 08:10:12;;;;;;;9.93;7.40;;;;;;;6.19;100.00;100548.53;4820615;29;20058;-91
2024/03/12 08:12:39;;;;;;;11.37;7.77;;;;;;;6.40;100.00;100542.34;4821208;29;20057;-91
2024/03/12 08:15:08;;;;;;;11.43;7.63;;;;;;;6.61;100.00;100547.44;4790834;29;20523;-91
2024/03/12 08:17:37;;;;;;;10.33;7.47;;;;;;;6.94;100.00;100534.97;4791937;29;20046;-91
2024/03/12 08:20:10;;;;;;;10.07;8.13;;;;;;;7.43;100.00;100535.41;4820933;29;20135;-91
2024/03/12 08:22:38;;;;;;;10.37;7.23;;;;;;;7.85;100.00;100534.09;4809101;29;20072;-90
2024/03/12 08:25:09;;;;;;;8.87;7.03;;;;;;;8.24;100.00;100534.50;4777850;29;20115;-92
2024/03/12 08:27:39;;;;;;;9.13;7.03;;;;;;;8.57;100.00;100538.44;4821594;29;20046;-91
2024/03/12 08:30:11;;;;;;;9.10;6.90;;;;;;;8.88;100.00;100533.59;4821755;29;20063;-92
2024/03/12 08:32:42;;;;;;;8.00;6.23;;;;;;;9.18;100.00;100536.66;4821912;29;20115;-92
2024/03/12 08:35:10;;;;;;;8.67;6.40;;;;;;;9.40;100.00;100531.88;4806911;29;20416;-92
2024/03/12 08:37:38;;;;;;;8.13;6.22;;;;;;;9.67;99.41;100533.13;4822779;29;20400;-92
2024/03/12 08:40:07;;;;;;;8.65;5.90;;;;;;;9.97;96.44;100537.81;4808093;29;20099;-91
2024/03/12 08:42:35;;;;;;;6.32;4.80;;;;;;;10.22;86.10;100517.09;4832967;29;20045;-90
2024/03/12 08:45:16;;;;;;;8.85;5.68;;;;;;;10.53;85.53;100524.38;4838413;29;20184;-89
2024/03/12 08:47:48;;;;;;;8.57;5.18;;;;;;;10.58;76.02;100519.84;4840913;29;20035;-91
2024/03/12 08:50:17;;;;;;;6.50;5.30;;;;;;;10.88;80.21;100526.19;4827027;29;20118;-90
2024/03/12 08:52:44;;;;;;;7.78;4.88;;;;;;;11.12;78.95;100522.97;4835016;29;20056;-89
2024/03/12 08:55:12;;;;;;;6.93;4.20;;;;;;;11.30;75.45;100513.69;4799729;29;20764;-90
2024/03/12 08:57:40;;;;;;;5.30;4.53;;;;;;;11.53;74.34;100516.59;4792104;29;20475;-91
2024/03/12 09:00:13;;;;;;;5.80;4.50;;;;;;;11.56;72.74;100513.00;4806872;29;20089;-92
2024/03/12 09:02:40;;;;;;;7.07;4.10;;;;;;;11.86;71.39;100519.28;4791591;30;20108;-91
2024/03/12 09:05:09;;;;;;;5.15;4.20;;;;;;;12.08;71.44;100517.72;4760693;30;20047;-91
2024/03/12 09:07:36;;;;;;;5.97;4.03;;;;;;;12.14;68.21;100516.69;4776197;29;20073;-90
2024/03/12 09:10:12;;;;;;;6.28;4.55;;;;;;;12.20;67.96;100521.81;4775381;30;20112;-91
2024/03/12 09:12:40;;;;;;;6.63;5.10;;;;;;;12.53;70.71;100519.09;4789771;29;20109;-92
2024/03/12 09:15:09;;;;;;;6.13;4.28;;;;;;;12.64;65.44;100519.59;4789739;29;20043;-92
2024/03/12 09:17:37;;;;;;;7.28;4.93;;;;;;;12.60;66.18;100515.31;4803853;29;20047;-92
2024/03/12 09:20:06;;;;;;;6.10;4.47;;;;;;;12.81;65.75;100514.63;4790321;30;20051;-91
2024/03/12 09:22:33;;;;;;;7.13;4.82;;;;;;;13.06;65.64;100519.16;4804272;29;20051;-92
2024/03/12 09:25:01;;;;;;;6.80;4.93;;;;;;;13.20;63.22;100524.88;4784921;29;20047;-92
2024/03/12 09:27:28;;;;;;;6.82;4.70;;;;;;;13.34;63.33;100519.97;4763888;30;20047;-92
2024/03/12 09:29:56;;;;;;;4.80;3.70;;;;;;;13.52;63.12;100516.69;4762213;30;20055;-90
2024/03/12 09:32:24;;;;;;;6.32;4.65;;;;;;;13.67;62.81;100519.72;4792769;29;20589;-93
2024/03/12 09:34:54;;;;;;;6.97;5.13;;;;;;;13.89;61.92;100527.81;4792747;29;20146;-92
2024/03/12 09:37:21;;;;;;;7.45;4.80;;;;;;;14.04;60.41;100522.81;4778894;30;20081;-92
2024/03/12 09:39:52;;;;;;;6.80;4.50;;;;;;;14.14;59.53;100519.81;4794094;29;20051;-93
2024/03/12 09:42:22;;;;;;;8.85;4.18;;;;;;;14.28;59.08;100523.66;4780126;30;20048;-92
2024/03/12 09:44:51;;;;;;;6.82;4.40;;;;;;;14.09;57.21;100522.63;4766404;30;20456;-93
2024/03/12 09:47:20;;;;;;;6.18;4.28;;;;;;;14.01;59.16;100525.56;4780877;29;20055;-91
2024/03/12 09:49:48;;;;;;;7.03;4.05;;;;;;;14.26;59.46;100519.34;4781039;30;20502;-92
2024/03/12 09:52:16;;;;;;;5.70;4.55;;;;;;;14.50;57.51;100517.56;4777087;30;20056;-93
2024/03/12 09:54:43;;;;;;;5.20;4.13;;;;;;;14.63;57.37;100524.16;4793314;29;20085;-92
2024/03/12 09:57:11;;;;;;;4.35;3.22;;;;;;;14.52;54.42;100516.56;4779792;30;20062;-91
2024/03/12 09:59:40;;;;;;;4.43;3.38;;;;;;;14.47;56.60;100523.88;4778060;30;20043;-91
2024/03/12 10:02:09;;;;;;;6.53;4.03;;;;;;;14.54;57.54;100521.81;4778263;30;20051;-93
2024/03/12 10:04:37;;;;;;;5.00;4.20;;;;;;;14.59;56.61;100518.06;4776984;30;20118;-91
2024/03/12 10:07:05;;;;;;;5.82;4.03;;;;;;;14.44;56.23;100515.97;4762341;30;20498;-91
2024/03/12 10:09:34;;;;;;;4.55;3.33;;;;;;;14.34;57.74;100522.56;4777458;30;20051;-93
2024/03/12 10:12:02;;;;;;;4.03;3.40;;;;;;;14.52;58.35;100515.72;4776960;30;20051;-92
2024/03/12 10:14:33;;;;;;;4.55;3.20;;;;;;;14.56;55.99;100518.19;4777126;30;20078;-92
2024/03/12 10:17:14;;;;;;;4.78;3.13;;;;;;;14.44;56.48;100525.75;4809684;29;20086;-91
2024/03/12 10:19:50;;;;;;;5.05;3.50;;;;;;;14.67;55.88;100523.09;4794425;29;20084;-93
2024/03/12 10:22:22;;;;;;;5.25;3.17;;;;;;;14.62;54.75;100523.25;4778811;30;20048;-92
2024/03/12 10:24:50;;;;;;;4.57;3.70;;;;;;;14.74;54.83;100518.41;4773504;29;20047;-92
2024/03/12 10:27:18;;;;;;;3.40;2.83;;;;;;;15.03;54.73;100522.53;4793753;30;20138;-92
2024/03/12 10:29:45;;;;;;;4.05;3.38;;;;;;;14.77;53.68;100527.09;4764108;30;20074;-91
2024/03/12 10:32:19;;;;;;;4.53;3.42;;;;;;;14.88;53.84;100521.34;4780688;30;20130;-92
2024/03/12 10:34:47;;;;;;;4.07;3.03;;;;;;;14.92;52.74;100520.31;4795805;29;20509;-92
2024/03/12 10:37:28;;;;;;;3.70;2.70;;;;;;;14.84;52.95;100519.75;4793353;30;20055;-92
2024/03/12 10:40:12;;;;;;;4.00;2.63;;;;;;;14.89;53.83;100523.13;4795145;29;20058;-90
2024/03/12 10:42:48;;;;;;;;;;;;;;;15.00;53.29;100512.03;4782437;30;20047;-91
2024/03/12 10:45:15;;;;;;;3.28;2.25;;;;;;;15.01;53.30;100522.59;4765888;30;19925;-91
2024/03/12 10:47:43;;;;;;;4.05;2.80;;;;;;;14.93;52.28;100524.69;4793518;29;20056;-93
2024/03/12 10:50:10;;;;;;;3.92;2.75;;;;;;;14.69;52.90;100521.22;4792575;29;20051;-93
